Time;durP1;ratioP1;P1;durP2;ratioP2;P2;SDS_P1;SDS_P2;PMS_P1;PMS_P2;Temp;Humidity;BMP_temperature;BMP_pressure;BME280_temperature;BME280_humidity;BME280_pressure;Samples;Min_cycle;Max_cycle;Signal;HPM_P1;HPM_P2
2022/04/27 00:02:17;;;;;;;;;;;10.10;99.90;;;;;;5134277;27;19915;-71
2022/04/27 00:04:43;;;;;;;;;;;10.00;99.90;;;;;;5133923;27;20404;-72
2022/04/27 00:07:09;;;;;;;;;;;10.10;99.90;;;;;;5134195;27;19916;-71
2022/04/27 00:09:34;;;;;;;;;;;10.00;99.90;;;;;;5133667;27;19919;-72
2022/04/27 00:12:01;;;;;;;;;;;10.00;99.90;;;;;;5133292;27;19927;-71
2022/04/27 00:14:30;;;;;;;;;;;10.00;99.90;;;;;;5133486;27;19908;-72
2022/04/27 00:16:56;;;;;;;;;;;10.00;99.90;;;;;;5133891;27;19958;-72
2022/04/27 00:19:22;;;;;;;;;;;10.00;99.90;;;;;;5133742;27;19919;-71
2022/04/27 00:21:47;;;;;;;;;;;10.10;99.90;;;;;;5133845;27;19915;-72
2022/04/27 00:24:13;;;;;;;;;;;10.10;99.90;;;;;;5133211;27;19915;-72
2022/04/27 00:26:38;;;;;;;;;;;10.20;99.90;;;;;;5114877;27;19973;-71
2022/04/27 00:29:04;;;;;;;;;;;10.20;99.90;;;;;;5114512;27;19961;-71
2022/04/27 00:31:31;;;;;;;;;;;10.20;99.90;;;;;;5114786;27;20357;-71
2022/04/27 00:33:57;;;;;;;;;;;10.20;99.90;;;;;;5133134;27;19950;-70
2022/04/27 00:36:22;;;;;;;;;;;10.20;99.90;;;;;;5133289;27;19915;-71
2022/04/27 00:38:48;;;;;;;;;;;10.10;99.90;;;;;;5133183;27;19907;-71
2022/04/27 00:41:13;;;;;;;;;;;10.10;99.90;;;;;;5132983;27;19976;-71
2022/04/27 00:43:40;;;;;;;;;;;10.10;99.90;;;;;;5133011;27;20385;-71
2022/04/27 00:46:06;;;;;;;;;;;10.00;99.90;;;;;;5132855;27;20007;-71
2022/04/27 00:48:32;;;;;;;;;;;10.10;99.90;;;;;;5133062;27;20524;-71
2022/04/27 00:50:59;;;;;;;;;;;10.10;99.90;;;;;;5133016;27;19915;-72
2022/04/27 00:53:25;;;;;;;;;;;10.10;99.90;;;;;;5114372;27;20320;-72
2022/04/27 00:55:50;;;;;;;;;;;10.10;99.90;;;;;;5132661;27;19919;-71
2022/04/27 00:58:17;;;;;;;;;;;10.10;99.90;;;;;;5132659;27;20286;-72
2022/04/27 01:00:42;;;;;;;;;;;10.20;99.90;;;;;;5132647;27;19930;-72
2022/04/27 01:03:08;;;;;;;;;;;10.20;99.90;;;;;;5132703;27;19908;-71
2022/04/27 01:05:33;;;;;;;;;;;10.20;99.90;;;;;;5132616;27;19922;-71
2022/04/27 01:08:00;;;;;;;;;;;10.10;99.90;;;;;;5132866;27;20362;-71
2022/04/27 01:10:27;;;;;;;;;;;10.10;99.90;;;;;;5132530;27;20297;-72
2022/04/27 01:12:54;;;;;;;;;;;10.10;99.90;;;;;;5132378;27;20010;-71
2022/04/27 01:15:29;;;;;;;;;;;10.10;99.90;;;;;;5132394;27;19958;-71
2022/04/27 01:17:57;;;;;;;;;;;10.00;99.90;;;;;;5132472;27;19926;-71
2022/04/27 01:20:23;;;;;;;;;;;10.00;99.90;;;;;;5132649;27;20426;-71
2022/04/27 01:22:48;;;;;;;;;;;11.50;99.90;;;;;;5132345;27;19954;-72
2022/04/27 01:25:13;;;;;;;;;;;10.00;99.90;;;;;;5132593;27;19915;-72
2022/04/27 01:27:42;;;;;;;;;;;10.00;99.90;;;;;;5113844;27;19999;-71
2022/04/27 01:30:10;;;;;;;;;;;10.00;99.90;;;;;;5132266;27;19954;-72
2022/04/27 01:32:36;;;;;;;;;;;10.00;99.90;;;;;;5132283;27;19916;-72
2022/04/27 01:35:01;;;;;;;;;;;10.00;99.90;;;;;;5132265;27;19914;-72
2022/04/27 01:40:11;;;;;;;;;;;10.00;99.90;;;;;;5131429;27;19938;-73
2022/04/27 01:42:37;;;;;;;;;;;10.00;99.90;;;;;;5132208;28;19911;-72
2022/04/27 01:45:02;;;;;;;;;;;9.90;99.90;;;;;;5132045;28;19914;-72
2022/04/27 01:47:28;;;;;;;;;;;9.90;99.90;;;;;;5132608;28;19962;-72
2022/04/27 01:49:54;;;;;;;;;;;9.90;99.90;;;;;;5132107;28;19911;-72
2022/04/27 01:55:03;;;;;;;;;;;9.90;99.90;;;;;;5132471;28;19915;-73
2022/04/27 01:57:29;;;;;;;;;;;9.90;99.90;;;;;;5132376;28;19916;-72
2022/04/27 01:59:55;;;;;;;;;;;9.90;99.90;;;;;;5132027;28;19915;-72
2022/04/27 02:02:20;;;;;;;;;;;10.00;99.90;;;;;;5132287;28;20430;-72
2022/04/27 02:04:46;;;;;;;;;;;10.00;99.90;;;;;;5131987;28;19990;-72
2022/04/27 02:07:11;;;;;;;;;;;10.00;99.90;;;;;;5131881;28;19916;-72
2022/04/27 02:09:37;;;;;;;;;;;10.00;99.90;;;;;;5132064;28;19908;-72
2022/04/27 02:12:04;;;;;;;;;;;9.90;99.90;;;;;;5131717;27;19920;-73
2022/04/27 02:14:29;;;;;;;;;;;9.90;99.90;;;;;;5131969;28;20412;-72
2022/04/27 02:16:55;;;;;;;;;;;9.80;99.90;;;;;;5132163;28;19920;-71
2022/04/27 02:19:21;;;;;;;;;;;9.90;99.90;;;;;;5131856;28;19908;-72
2022/04/27 02:21:47;;;;;;;;;;;9.90;99.90;;;;;;5132037;28;19922;-72
2022/04/27 02:24:12;;;;;;;;;;;9.90;99.90;;;;;;5131784;28;19911;-72
2022/04/27 02:26:38;;;;;;;;;;;9.90;99.90;;;;;;5132033;28;19915;-71
2022/04/27 02:29:03;;;;;;;;;;;9.80;99.90;;;;;;5131737;28;19907;-72
2022/04/27 02:31:29;;;;;;;;;;;9.80;99.90;;;;;;5113176;28;20030;-71
2022/04/27 02:33:54;;;;;;;;;;;9.80;99.90;;;;;;5131693;28;20363;-72
2022/04/27 02:36:21;;;;;;;;;;;9.90;99.90;;;;;;5131843;28;19926;-72
2022/04/27 02:38:47;;;;;;;;;;;9.80;99.90;;;;;;5131751;28;19907;-72
2022/04/27 02:41:12;;;;;;;;;;;10.00;99.90;;;;;;5131897;28;19919;-73
2022/04/27 02:43:38;;;;;;;;;;;9.80;99.90;;;;;;5131901;28;19915;-72
2022/04/27 02:46:03;;;;;;;;;;;9.80;99.90;;;;;;5131772;28;20014;-72
2022/04/27 02:48:29;;;;;;;;;;;9.80;99.90;;;;;;5113082;28;19915;-72
2022/04/27 02:53:38;;;;;;;;;;;9.70;99.90;;;;;;5135198;27;19918;-72
2022/04/27 02:56:04;;;;;;;;;;;9.70;99.90;;;;;;5135439;27;19923;-72
2022/04/27 02:58:29;;;;;;;;;;;9.70;99.90;;;;;;5135044;27;19915;-71
2022/04/27 03:00:55;;;;;;;;;;;9.80;99.90;;;;;;5135146;27;19915;-71
2022/04/27 03:03:20;;;;;;;;;;;9.70;99.90;;;;;;5134977;27;20359;-71
2022/04/27 03:05:46;;;;;;;;;;;9.70;99.90;;;;;;5116511;27;19998;-71
2022/04/27 03:08:11;;;;;;;;;;;9.70;99.90;;;;;;5134886;27;19953;-71
2022/04/27 03:10:37;;;;;;;;;;;9.70;99.90;;;;;;5134853;27;19969;-71
2022/04/27 03:13:02;;;;;;;;;;;9.70;99.90;;;;;;5134507;27;19919;-71
2022/04/27 03:15:28;;;;;;;;;;;9.70;99.90;;;;;;5116314;27;19920;-72
2022/04/27 03:20:37;;;;;;;;;;;9.70;99.90;;;;;;5135003;27;20262;-71
2022/04/27 03:23:03;;;;;;;;;;;9.70;99.90;;;;;;5116008;27;19923;-72
2022/04/27 03:25:28;;;;;;;;;;;9.70;99.90;;;;;;5116003;27;20255;-71
2022/04/27 03:27:54;;;;;;;;;;;9.70;99.90;;;;;;5115968;27;20034;-71
2022/04/27 03:30:19;;;;;;;;;;;9.70;99.90;;;;;;5134433;27;20428;-71
2022/04/27 03:32:44;;;;;;;;;;;9.70;99.90;;;;;;5134194;27;19919;-71
2022/04/27 03:35:10;;;;;;;;;;;9.70;99.90;;;;;;5115772;27;19908;-72
2022/04/27 03:37:35;;;;;;;;;;;9.70;99.90;;;;;;5134227;27;19908;-72
2022/04/27 03:40:01;;;;;;;;;;;9.70;99.90;;;;;;5115881;27;19914;-72
2022/04/27 03:42:26;;;;;;;;;;;9.70;99.90;;;;;;5134638;27;19927;-72
2022/04/27 03:44:52;;;;;;;;;;;9.70;99.90;;;;;;5134156;27;19907;-72
2022/04/27 03:47:17;;;;;;;;;;;9.70;99.90;;;;;;5115566;27;19920;-72
2022/04/27 03:49:43;;;;;;;;;;;9.70;99.90;;;;;;5115622;27;19972;-72
2022/04/27 03:52:08;;;;;;;;;;;9.80;99.90;;;;;;5134379;27;19919;-71
2022/04/27 03:54:34;;;;;;;;;;;9.80;99.90;;;;;;5134004;27;19946;-71
2022/04/27 03:56:59;;;;;;;;;;;9.80;99.90;;;;;;5115640;27;19920;-71
2022/04/27 03:59:25;;;;;;;;;;;9.90;99.90;;;;;;5133853;27;19911;-71
2022/04/27 04:01:51;;;;;;;;;;;9.90;99.90;;;;;;5133937;27;19955;-71
2022/04/27 04:04:16;;;;;;;;;;;9.90;99.90;;;;;;5114974;27;19953;-71
2022/04/27 04:06:42;;;;;;;;;;;9.90;99.90;;;;;;5134029;27;19915;-71
2022/04/27 04:09:09;;;;;;;;;;;9.90;99.90;;;;;;5133521;27;19908;-71
2022/04/27 04:11:35;;;;;;;;;;;9.90;99.90;;;;;;5133525;27;19924;-71
2022/04/27 04:14:00;;;;;;;;;;;10.50;99.90;;;;;;5133509;27;19908;-71
2022/04/27 04:16:26;;;;;;;;;;;10.00;99.90;;;;;;5133560;27;19923;-71
2022/04/27 04:18:51;;;;;;;;;;;10.00;99.90;;;;;;5133345;27;19995;-71
2022/04/27 04:21:17;;;;;;;;;;;10.10;99.90;;;;;;5133585;27;19916;-71
2022/04/27 04:23:42;;;;;;;;;;;10.10;99.90;;;;;;5133228;27;19915;-72
2022/04/27 04:28:52;;;;;;;;;;;10.10;99.90;;;;;;5133193;27;19960;-71
2022/04/27 04:31:17;;;;;;;;;;;10.20;99.90;;;;;;5114641;27;19915;-71
2022/04/27 04:33:43;;;;;;;;;;;10.20;99.90;;;;;;5133652;27;19918;-71
2022/04/27 04:36:09;;;;;;;;;;;10.30;99.90;;;;;;5114556;27;19919;-71
2022/04/27 04:38:34;;;;;;;;;;;10.40;99.90;;;;;;5132941;27;19977;-72
2022/04/27 04:41:00;;;;;;;;;;;10.50;99.90;;;;;;5133186;27;19912;-71
2022/04/27 04:43:25;;;;;;;;;;;10.60;99.90;;;;;;5133023;27;19919;-71
2022/04/27 04:45:51;;;;;;;;;;;10.70;99.90;;;;;;5133145;27;20278;-71
2022/04/27 04:48:16;;;;;;;;;;;10.80;99.90;;;;;;5133103;27;19911;-72
2022/04/27 04:50:42;;;;;;;;;;;10.90;99.90;;;;;;5114414;27;19972;-72
2022/04/27 04:53:07;;;;;;;;;;;11.00;99.90;;;;;;5132863;27;20018;-72
2022/04/27 04:55:33;;;;;;;;;;;11.10;99.90;;;;;;5114373;27;19911;-73
2022/04/27 04:57:58;;;;;;;;;;;11.10;99.90;;;;;;5114356;27;20334;-72
2022/04/27 05:00:24;;;;;;;;;;;11.00;99.90;;;;;;5132508;27;20124;-72
2022/04/27 05:02:50;;;;;;;;;;;11.30;99.90;;;;;;5132619;27;19938;-71
2022/04/27 05:05:15;;;;;;;;;;;11.40;99.90;;;;;;5132466;27;20355;-71
2022/04/27 05:07:41;;;;;;;;;;;11.50;99.90;;;;;;5132552;27;19915;-71
2022/04/27 05:10:07;;;;;;;;;;;11.60;99.90;;;;;;5132509;27;19914;-72
2022/04/27 05:12:34;;;;;;;;;;;11.80;99.90;;;;;;5132443;27;19919;-73
2022/04/27 05:15:00;;;;;;;;;;;12.00;99.90;;;;;;5112983;27;20030;-73
2022/04/27 05:17:25;;;;;;;;;;;11.90;99.90;;;;;;5132900;27;20346;-72
2022/04/27 05:19:52;;;;;;;;;;;12.00;99.90;;;;;;5114018;27;19907;-72
2022/04/27 05:22:18;;;;;;;;;;;12.20;99.90;;;;;;5132947;27;19946;-71
2022/04/27 05:24:43;;;;;;;;;;;12.40;99.90;;;;;;5132220;27;19907;-72
2022/04/27 05:27:09;;;;;;;;;;;12.60;99.90;;;;;;5113977;27;19916;-71
2022/04/27 05:32:18;;;;;;;;;;;12.70;99.90;;;;;;5132744;27;19942;-72
2022/04/27 05:34:44;;;;;;;;;;;12.80;99.90;;;;;;5113483;28;20266;-73
2022/04/27 05:37:09;;;;;;;;;;;12.60;99.90;;;;;;5132546;27;19915;-72
2022/04/27 05:39:35;;;;;;;;;;;13.90;99.90;;;;;;5132337;28;20006;-74
2022/04/27 05:42:00;;;;;;;;;;;12.80;99.90;;;;;;5132062;28;19987;-73
2022/04/27 05:44:26;;;;;;;;;;;12.70;99.90;;;;;;5132516;28;20009;-74
2022/04/27 05:46:52;;;;;;;;;;;12.70;99.90;;;;;;5132506;28;20001;-72
2022/04/27 05:49:18;;;;;;;;;;;12.70;99.90;;;;;;5113587;28;20407;-72
2022/04/27 05:51:43;;;;;;;;;;;12.80;99.90;;;;;;5132221;28;20023;-72
2022/04/27 05:54:09;;;;;;;;;;;12.80;99.90;;;;;;5132571;28;20359;-71
2022/04/27 05:56:35;;;;;;;;;;;12.80;99.90;;;;;;5113653;28;20093;-71
2022/04/27 05:59:01;;;;;;;;;;;12.90;99.90;;;;;;5131832;28;19908;-72
2022/04/27 06:01:27;;;;;;;;;;;13.20;99.90;;;;;;5132075;28;20239;-72
2022/04/27 06:03:53;;;;;;;;;;;13.20;99.90;;;;;;5131895;28;20018;-72
2022/04/27 06:06:19;;;;;;;;;;;13.30;99.90;;;;;;5132059;28;20336;-72
2022/04/27 06:08:45;;;;;;;;;;;13.50;99.90;;;;;;5132447;28;20270;-71
2022/04/27 06:11:10;;;;;;;;;;;13.70;99.90;;;;;;5113258;28;19919;-72
2022/04/27 06:13:36;;;;;;;;;;;13.70;99.90;;;;;;5131903;28;20339;-72
2022/04/27 06:16:01;;;;;;;;;;;13.90;99.90;;;;;;5131970;28;19916;-72
2022/04/27 06:18:27;;;;;;;;;;;14.00;99.90;;;;;;5131938;28;19908;-73
2022/04/27 06:20:53;;;;;;;;;;;14.10;99.90;;;;;;5131926;28;19916;-73
2022/04/27 06:23:18;;;;;;;;;;;14.10;99.90;;;;;;5131845;28;19918;-73
2022/04/27 06:25:47;;;;;;;;;;;14.10;99.90;;;;;;5132813;27;20297;-73
2022/04/27 06:28:13;;;;;;;;;;;14.20;99.90;;;;;;5135692;27;19930;-72
2022/04/27 06:30:38;;;;;;;;;;;14.30;99.90;;;;;;5135743;27;19915;-73
2022/04/27 06:33:04;;;;;;;;;;;14.40;99.90;;;;;;5117150;27;19915;-73
2022/04/27 06:35:29;;;;;;;;;;;14.40;99.90;;;;;;5117314;27;19919;-73
2022/04/27 06:37:55;;;;;;;;;;;14.40;99.90;;;;;;5135473;27;20480;-72
2022/04/27 06:40:20;;;;;;;;;;;14.30;99.90;;;;;;5135476;27;20404;-72
2022/04/27 06:42:46;;;;;;;;;;;14.40;99.90;;;;;;5135416;27;19925;-72
2022/04/27 06:45:12;;;;;;;;;;;14.30;99.90;;;;;;5135244;27;19908;-73
2022/04/27 06:47:37;;;;;;;;;;;14.30;99.90;;;;;;5135355;27;19912;-72
2022/04/27 06:50:03;;;;;;;;;;;14.30;99.90;;;;;;5135153;27;20301;-72
2022/04/27 06:52:28;;;;;;;;;;;14.30;99.90;;;;;;5135078;27;19982;-72
2022/04/27 06:54:54;;;;;;;;;;;14.30;99.90;;;;;;5135069;27;19939;-72
2022/04/27 06:57:19;;;;;;;;;;;14.40;99.90;;;;;;5135553;27;19930;-72
2022/04/27 06:59:45;;;;;;;;;;;14.40;99.90;;;;;;5135095;27;19980;-71
2022/04/27 07:02:12;;;;;;;;;;;14.70;99.90;;;;;;5135400;27;19916;-73
2022/04/27 07:04:40;;;;;;;;;;;15.00;99.90;;;;;;5134974;27;19912;-72
2022/04/27 07:07:06;;;;;;;;;;;15.30;99.90;;;;;;5116463;27;20351;-72
2022/04/27 07:09:31;;;;;;;;;;;15.60;99.90;;;;;;5116327;27;19983;-73
2022/04/27 07:11:57;;;;;;;;;;;15.90;99.90;;;;;;5116016;27;20262;-72
2022/04/27 07:14:23;;;;;;;;;;;16.00;99.90;;;;;;5134665;27;19998;-73
2022/04/27 07:16:48;;;;;;;;;;;16.00;99.90;;;;;;5116282;27;20374;-72
2022/04/27 07:19:14;;;;;;;;;;;16.30;99.90;;;;;;5134706;27;19908;-72
2022/04/27 07:21:40;;;;;;;;;;;16.40;99.90;;;;;;5134765;27;19954;-72
2022/04/27 07:24:06;;;;;;;;;;;16.30;99.90;;;;;;5134525;27;19912;-72
2022/04/27 07:26:31;;;;;;;;;;;16.20;99.90;;;;;;5134661;27;20002;-72
2022/04/27 07:28:57;;;;;;;;;;;15.90;99.90;;;;;;5134539;27;20372;-73
2022/04/27 07:31:23;;;;;;;;;;;16.10;99.90;;;;;;5115797;27;20022;-72
2022/04/27 07:33:48;;;;;;;;;;;16.10;99.90;;;;;;5134721;27;19912;-73
2022/04/27 07:36:14;;;;;;;;;;;16.00;99.90;;;;;;5134405;27;19919;-73
2022/04/27 07:38:40;;;;;;;;;;;15.90;99.90;;;;;;5133244;27;19907;-73
2022/04/27 07:41:06;;;;;;;;;;;15.70;99.90;;;;;;5134397;27;19946;-72
2022/04/27 07:43:31;;;;;;;;;;;15.70;99.90;;;;;;5134234;27;19947;-72
2022/04/27 07:45:57;;;;;;;;;;;15.90;99.90;;;;;;5134236;27;19957;-73
2022/04/27 07:48:23;;;;;;;;;;;16.10;99.90;;;;;;5115580;27;19914;-72
2022/04/27 07:50:48;;;;;;;;;;;16.20;99.90;;;;;;5133973;27;19915;-72
2022/04/27 07:53:14;;;;;;;;;;;16.30;99.90;;;;;;5115299;27;20003;-73
2022/04/27 07:55:39;;;;;;;;;;;16.40;99.90;;;;;;5134083;27;19915;-73
2022/04/27 07:58:05;;;;;;;;;;;16.40;99.90;;;;;;5133945;27;19915;-73
2022/04/27 08:00:31;;;;;;;;;;;16.50;99.90;;;;;;5133859;27;19920;-70
2022/04/27 08:02:56;;;;;;;;;;;16.90;99.90;;;;;;5133690;27;19911;-73
2022/04/27 08:05:22;;;;;;;;;;;16.90;99.90;;;;;;5133693;27;19908;-71
2022/04/27 08:07:47;;;;;;;;;;;16.80;99.90;;;;;;5133518;27;19921;-72
2022/04/27 08:10:17;;;;;;;;;;;17.00;99.90;;;;;;5133480;27;19907;-72
2022/04/27 08:12:46;;;;;;;;;;;17.00;99.90;;;;;;5133200;27;20283;-72
2022/04/27 08:15:12;;;;;;;;;;;17.00;99.90;;;;;;5133634;27;20377;-71
2022/04/27 08:17:51;;;;;;;;;;;17.00;99.90;;;;;;5133399;27;19950;-71
2022/04/27 08:23:11;;;;;;;;;;;17.20;99.90;;;;;;5133614;27;19918;-73
2022/04/27 08:25:37;;;;;;;;;;;17.60;99.90;;;;;;5114852;27;19915;-75
2022/04/27 08:28:06;;;;;;;;;;;18.10;99.90;;;;;;5115027;27;19943;-75
2022/04/27 08:30:38;;;;;;;;;;;18.20;99.90;;;;;;5114866;27;19916;-75
2022/04/27 08:33:05;;;;;;;;;;;18.50;99.90;;;;;;5133137;27;19912;-73
2022/04/27 08:35:33;;;;;;;;;;;18.60;99.90;;;;;;5133194;27;19960;-72
2022/04/27 08:38:03;;;;;;;;;;;18.80;99.90;;;;;;5132985;27;20386;-72
2022/04/27 08:40:28;;;;;;;;;;;18.80;97.80;;;;;;5133173;27;19938;-73
2022/04/27 08:42:54;;;;;;;;;;;18.60;97.20;;;;;;5133142;27;19908;-72
2022/04/27 08:45:21;;;;;;;;;;;18.60;97.20;;;;;;5132995;27;20402;-72
2022/04/27 08:47:47;;;;;;;;;;;18.50;98.80;;;;;;5133105;27;19907;-73
2022/04/27 08:50:13;;;;;;;;;;;18.50;98.50;;;;;;5132715;27;19948;-72
2022/04/27 08:52:40;;;;;;;;;;;18.60;97.40;;;;;;5114305;27;20460;-72
2022/04/27 08:55:06;;;;;;;;;;;18.20;99.00;;;;;;5132881;27;19947;-72
2022/04/27 08:57:31;;;;;;;;;;;18.20;98.70;;;;;;5114321;27;19951;-71
2022/04/27 08:59:57;;;;;;;;;;;18.20;97.60;;;;;;5132830;27;19907;-73
2022/04/27 09:02:26;;;;;;;;;;;18.20;98.40;;;;;;5133038;27;19916;-73
2022/04/27 09:05:08;;;;;;;;;;;18.50;96.60;;;;;;5132682;27;20375;-72
2022/04/27 09:07:39;;;;;;;;;;;18.60;97.40;;;;;;5132611;27;19916;-72
2022/04/27 09:10:12;;;;;;;;;;;18.40;97.10;;;;;;5133052;27;20313;-72
2022/04/27 09:12:46;;;;;;;;;;;18.50;96.70;;;;;;5132295;27;20011;-73
2022/04/27 09:15:12;;;;;;;;;;;18.70;97.10;;;;;;5132361;27;20290;-73
2022/04/27 09:23:19;;;;;;;;;;;18.50;94.50;;;;;;5132248;27;19976;-73
2022/04/27 09:25:45;;;;;;;;;;;18.80;93.30;;;;;;5132428;27;19915;-72
2022/04/27 09:28:10;;;;;;;;;;;19.20;92.70;;;;;;5132292;27;20270;-71
2022/04/27 09:30:36;;;;;;;;;;;19.20;92.50;;;;;;5132323;27;19922;-71
2022/04/27 09:33:01;;;;;;;;;;;19.20;92.50;;;;;;5132105;27;19972;-71
2022/04/27 09:35:34;;;;;;;;;;;19.30;92.00;;;;;;5132113;27;19916;-74
2022/04/27 09:38:19;;;;;;;;;;;19.30;89.80;;;;;;5132145;27;20390;-73
2022/04/27 09:40:48;;;;;;;;;;;19.50;90.90;;;;;;5113712;28;19920;-72
2022/04/27 09:43:14;;;;;;;;;;;19.70;90.60;;;;;;5132339;28;19943;-72
2022/04/27 09:45:41;;;;;;;;;;;19.50;89.60;;;;;;5131949;28;19923;-72
2022/04/27 09:48:08;;;;;;;;;;;18.90;89.40;;;;;;5131964;28;19907;-73
2022/04/27 09:50:50;;;;;;;;;;;18.80;91.20;;;;;;5132263;28;19915;-74
2022/04/27 09:53:16;;;;;;;;;;;18.90;91.30;;;;;;5132467;28;19919;-73
2022/04/27 09:55:47;;;;;;;;;;;19.10;90.80;;;;;;5132312;28;20248;-73
2022/04/27 09:58:14;;;;;;;;;;;19.20;90.30;;;;;;5113581;28;19914;-72
2022/04/27 10:00:43;;;;;;;;;;;19.50;90.20;;;;;;5132868;27;20339;-73
2022/04/27 10:03:10;;;;;;;;;;;19.90;88.50;;;;;;5135999;27;20337;-72
2022/04/27 10:05:36;;;;;;;;;;;19.50;85.80;;;;;;5135974;27;19919;-70
2022/04/27 10:08:02;;;;;;;;;;;19.50;86.10;;;;;;5117364;27;20415;-73
2022/04/27 10:10:27;;;;;;;;;;;19.60;88.50;;;;;;5136013;27;19920;-72
2022/04/27 10:12:53;;;;;;;;;;;19.60;85.50;;;;;;5135832;27;19919;-72
2022/04/27 10:15:19;;;;;;;;;;;19.20;84.40;;;;;;5117777;27;19908;-72
2022/04/27 10:17:45;;;;;;;;;;;19.40;83.70;;;;;;5136049;27;19907;-72
2022/04/27 10:20:26;;;;;;;;;;;19.80;82.30;;;;;;5135677;27;19938;-72
2022/04/27 10:22:52;;;;;;;;;;;20.20;80.00;;;;;;5135843;27;19908;-72
2022/04/27 10:25:18;;;;;;;;;;;20.30;78.50;;;;;;5135870;27;19914;-72
2022/04/27 10:27:44;;;;;;;;;;;20.20;80.20;;;;;;5135690;27;19908;-72
2022/04/27 10:30:11;;;;;;;;;;;20.20;77.80;;;;;;5135486;27;19908;-72
2022/04/27 10:32:47;;;;;;;;;;;20.50;78.60;;;;;;5135349;27;19960;-72
2022/04/27 10:35:17;;;;;;;;;;;20.70;80.40;;;;;;5135585;27;19952;-71
2022/04/27 10:37:47;;;;;;;;;;;21.10;79.20;;;;;;5117073;27;19958;-71
2022/04/27 10:40:25;;;;;;;;;;;21.10;78.30;;;;;;5135179;27;19908;-72
2022/04/27 10:42:50;;;;;;;;;;;20.70;77.70;;;;;;5135532;27;19908;-71
2022/04/27 10:45:21;;;;;;;;;;;20.10;81.20;;;;;;5135213;27;19976;-73
2022/04/27 10:47:47;;;;;;;;;;;20.30;80.60;;;;;;5135284;27;19926;-73
2022/04/27 10:50:18;;;;;;;;;;;20.40;78.50;;;;;;5134990;27;19907;-71
2022/04/27 10:52:51;;;;;;;;;;;20.40;78.80;;;;;;5135277;27;19912;-73
2022/04/27 10:55:34;;;;;;;;;;;20.10;78.70;;;;;;5135148;27;19908;-73
2022/04/27 10:58:13;;;;;;;;;;;19.70;78.40;;;;;;5135261;27;19911;-72
2022/04/27 11:00:57;;;;;;;;;;;19.60;79.80;;;;;;5116482;27;19915;-73
2022/04/27 11:03:24;;;;;;;;;;;19.20;81.10;;;;;;5135235;27;19998;-71
2022/04/27 11:05:49;;;;;;;;;;;18.90;81.70;;;;;;5135046;27;19926;-74
2022/04/27 11:08:21;;;;;;;;;;;18.80;82.10;;;;;;5116638;27;19907;-73
2022/04/27 11:10:47;;;;;;;;;;;18.80;82.80;;;;;;5116601;27;20317;-73
2022/04/27 11:13:12;;;;;;;;;;;19.10;81.50;;;;;;5134681;27;19919;-73
2022/04/27 11:15:38;;;;;;;;;;;19.00;81.00;;;;;;5134947;27;20409;-72
2022/04/27 11:18:04;;;;;;;;;;;19.50;80.20;;;;;;5116416;27;19962;-73
2022/04/27 11:20:31;;;;;;;;;;;19.70;79.00;;;;;;5135030;27;19915;-73
2022/04/27 11:22:57;;;;;;;;;;;20.00;77.90;;;;;;5134802;27;19907;-74
2022/04/27 11:25:24;;;;;;;;;;;20.20;75.50;;;;;;5116042;27;19960;-73
2022/04/27 11:27:50;;;;;;;;;;;20.80;75.20;;;;;;5134695;27;19914;-73
2022/04/27 11:30:16;;;;;;;;;;;21.40;75.40;;;;;;5134598;27;20293;-73
2022/04/27 11:32:44;;;;;;;;;;;21.50;72.50;;;;;;5116267;27;20404;-74
2022/04/27 11:35:10;;;;;;;;;;;21.80;69.30;;;;;;5134805;27;19907;-73
2022/04/27 11:37:37;;;;;;;;;;;21.80;66.50;;;;;;5134486;27;19911;-73
2022/04/27 11:40:16;;;;;;;;;;;21.90;62.50;;;;;;5115786;27;20363;-74
2022/04/27 11:42:43;;;;;;;;;;;21.80;62.60;;;;;;5134360;27;19920;-74
2022/04/27 11:45:08;;;;;;;;;;;21.60;61.40;;;;;;5134322;27;19908;-73
2022/04/27 11:47:34;;;;;;;;;;;21.50;63.40;;;;;;5134369;27;19976;-73
2022/04/27 11:50:01;;;;;;;;;;;21.40;59.20;;;;;;5134187;27;20366;-75
2022/04/27 11:52:27;;;;;;;;;;;20.90;61.60;;;;;;5115917;27;19923;-74
2022/04/27 11:54:52;;;;;;;;;;;20.50;65.50;;;;;;5115614;27;19911;-74
2022/04/27 11:57:22;;;;;;;;;;;20.30;71.40;;;;;;5134077;27;19915;-72
2022/04/27 11:59:49;;;;;;;;;;;20.00;72.90;;;;;;5115378;27;20363;-73
2022/04/27 12:02:21;;;;;;;;;;;19.60;73.70;;;;;;5134383;27;19969;-73
2022/04/27 12:04:46;;;;;;;;;;;19.10;75.70;;;;;;5133937;27;19912;-74
2022/04/27 12:07:16;;;;;;;;;;;18.90;77.40;;;;;;5134414;27;19916;-74
2022/04/27 12:09:54;;;;;;;;;;;18.80;78.30;;;;;;5133854;27;19941;-74
2022/04/27 12:12:20;;;;;;;;;;;18.60;78.70;;;;;;5133783;27;19928;-74
2022/04/27 12:14:45;;;;;;;;;;;18.20;80.40;;;;;;5133864;27;20036;-74
2022/04/27 12:17:30;;;;;;;;;;;17.80;81.10;;;;;;5134271;27;20286;-74
2022/04/27 12:19:56;;;;;;;;;;;17.70;82.40;;;;;;5115111;27;19911;-74
2022/04/27 12:22:22;;;;;;;;;;;17.50;82.30;;;;;;5115588;27;19916;-74
2022/04/27 12:24:47;;;;;;;;;;;17.40;82.50;;;;;;5115351;27;19975;-73
2022/04/27 12:27:19;;;;;;;;;;;17.30;81.40;;;;;;5133987;27;19915;-75
2022/04/27 12:29:45;;;;;;;;;;;17.20;81.80;;;;;;5133732;27;19912;-74
2022/04/27 12:32:11;;;;;;;;;;;17.30;82.90;;;;;;5133776;27;19919;-74
2022/04/27 12:37:31;;;;;;;;;;;17.20;82.30;;;;;;5133895;27;20259;-74
2022/04/27 12:39:56;;;;;;;;;;;17.30;80.40;;;;;;5133616;27;19912;-74
2022/04/27 12:42:23;;;;;;;;;;;17.30;80.80;;;;;;5133671;27;20321;-74
2022/04/27 12:44:48;;;;;;;;;;;17.30;82.30;;;;;;5133161;27;19960;-74
2022/04/27 12:47:14;;;;;;;;;;;17.30;81.50;;;;;;5133443;27;20423;-74
2022/04/27 12:49:44;;;;;;;;;;;17.20;79.50;;;;;;5133020;27;19914;-74
2022/04/27 12:52:32;;;;;;;;;;;17.20;79.30;;;;;;5133406;27;19919;-74
2022/04/27 12:55:08;;;;;;;;;;;17.20;79.10;;;;;;5133015;27;19908;-74
2022/04/27 12:57:44;;;;;;;;;;;17.20;80.00;;;;;;5132924;27;20422;-74
2022/04/27 13:00:11;;;;;;;;;;;17.20;81.10;;;;;;5133116;27;20355;-74
2022/04/27 13:02:37;;;;;;;;;;;17.10;79.80;;;;;;5132809;27;19915;-74
2022/04/27 13:05:03;;;;;;;;;;;17.00;79.90;;;;;;5132863;27;20244;-74
2022/04/27 13:07:28;;;;;;;;;;;16.90;79.50;;;;;;5132321;27;19915;-74
2022/04/27 13:12:39;;;;;;;;;;;16.80;80.40;;;;;;5132377;27;19976;-74
2022/04/27 13:15:05;;;;;;;;;;;16.80;81.20;;;;;;5114118;27;19911;-74
2022/04/27 13:17:31;;;;;;;;;;;16.80;81.60;;;;;;5132293;27;19916;-74
2022/04/27 13:19:56;;;;;;;;;;;16.80;81.10;;;;;;5132725;27;19919;-74
2022/04/27 13:22:22;;;;;;;;;;;16.80;79.40;;;;;;5133014;27;19919;-74
2022/04/27 13:24:48;;;;;;;;;;;17.00;78.60;;;;;;5113963;27;19959;-74
2022/04/27 13:27:13;;;;;;;;;;;17.00;80.20;;;;;;5132773;27;20434;-75
2022/04/27 13:29:39;;;;;;;;;;;17.10;78.50;;;;;;5132363;27;20279;-75
2022/04/27 13:32:05;;;;;;;;;;;17.10;78.40;;;;;;5132563;27;19928;-74
2022/04/27 13:34:30;;;;;;;;;;;17.20;78.30;;;;;;5131893;27;19908;-74
2022/04/27 13:36:56;;;;;;;;;;;17.30;78.70;;;;;;5113064;27;20016;-74
2022/04/27 13:39:22;;;;;;;;;;;17.30;77.30;;;;;;5132277;27;19915;-74
2022/04/27 13:41:47;;;;;;;;;;;17.30;77.20;;;;;;5132573;28;19926;-74
2022/04/27 13:44:13;;;;;;;;;;;17.40;77.00;;;;;;5132316;28;20377;-72
2022/04/27 13:46:39;;;;;;;;;;;17.50;77.60;;;;;;5132451;28;19920;-73
2022/04/27 13:49:04;;;;;;;;;;;17.60;77.00;;;;;;5132491;28;19911;-73
2022/04/27 13:51:30;;;;;;;;;;;17.50;76.40;;;;;;5132141;28;19958;-73
2022/04/27 13:53:58;;;;;;;;;;;17.60;76.30;;;;;;5132271;28;19915;-74
2022/04/27 13:56:24;;;;;;;;;;;17.40;77.50;;;;;;5132531;28;20015;-73
2022/04/27 13:58:50;;;;;;;;;;;17.30;77.40;;;;;;5132490;28;20347;-73
2022/04/27 14:01:17;;;;;;;;;;;17.10;78.00;;;;;;5113782;28;19919;-74
2022/04/27 14:03:42;;;;;;;;;;;17.00;78.80;;;;;;5113437;28;19907;-74
2022/04/27 14:06:08;;;;;;;;;;;16.90;78.30;;;;;;5132228;28;20313;-74
2022/04/27 14:08:33;;;;;;;;;;;16.90;78.20;;;;;;5132270;28;20313;-74
2022/04/27 14:10:59;;;;;;;;;;;16.70;78.00;;;;;;5113655;28;20336;-74
2022/04/27 14:13:25;;;;;;;;;;;16.70;77.60;;;;;;5131528;28;20377;-72
2022/04/27 14:18:35;;;;;;;;;;;16.70;78.50;;;;;;5131947;28;19929;-73
2022/04/27 14:21:01;;;;;;;;;;;16.60;79.60;;;;;;5125582;28;19920;-70
2022/04/27 14:23:26;;;;;;;;;;;16.50;78.90;;;;;;5108349;28;19969;-70
2022/04/27 14:25:53;;;;;;;;;;;16.40;79.10;;;;;;5111184;28;19916;-70
2022/04/27 14:28:19;;;;;;;;;;;16.40;79.70;;;;;;5111308;28;19972;-72
2022/04/27 14:30:45;;;;;;;;;;;16.50;79.60;;;;;;5111193;28;19916;-72
2022/04/27 14:33:11;;;;;;;;;;;16.60;79.70;;;;;;5111342;28;19916;-70
2022/04/27 14:35:37;;;;;;;;;;;16.60;79.00;;;;;;5110816;28;20275;-71
2022/04/27 14:38:04;;;;;;;;;;;16.60;77.20;;;;;;5111085;28;19915;-71
2022/04/27 14:40:29;;;;;;;;;;;16.50;77.80;;;;;;5110937;28;19966;-71
2022/04/27 14:42:55;;;;;;;;;;;16.30;77.70;;;;;;5111085;28;19940;-71
2022/04/27 14:45:20;;;;;;;;;;;16.20;77.10;;;;;;5111178;28;20360;-71
2022/04/27 14:47:46;;;;;;;;;;;16.20;78.30;;;;;;5114088;28;19918;-71
2022/04/27 14:50:12;;;;;;;;;;;16.20;77.80;;;;;;5115006;28;19969;-69